Piarco FIR Weather

TAPA 271000Z 11012KT 9999 BKN018 27/22 Q1016 NOSIG

TBPB 271000Z 11020KT 9999 SCT018 27/22 Q1014 NOSIG

TDPD 271000Z 12011KT 9999 SCT016TCU 27/23 Q1015

TFFF 271000Z AUTO 11010KT 9999 FEW028 26/23 Q1015

TFFR 271000Z AUTO 11006KT 9999 ///CB 25/22 Q1016

TGPY 271000Z 10010KT 9999 FEW018 27/23 Q1013 NOSIG

TKPK 270100Z 06015KT 9999 SCT019 28/24 Q1017

TKPN 270000Z 09012KT 9999 FEW019 Q1017

TLPC 271000Z 11009KT 9999 SCT023 26/24 Q1015 NOSIG

TLPL 271000Z 10020KT 9999 SCT021 27/23 Q1015 TEMPO SHRA

TTCP 271000Z 11010KT 9999 VCSH FEW016 27/21 Q1013 NOSIG RMK VCSH NE

TTPP 271000Z 11003KT 9999 -SHRA VCSH FEW016 25/22 Q1014 NOSIG RMK VCSH NE

TVSV 121600Z 08005KT 040V120 9999 SCT020 28/20 Q1017 NOSIG